Aviation Digital Data Service (ADDS)

Output produced by METARs form (0453 UTC 14 December 2018)
found at http://www.aviationweather.gov/metar/data/
 
TAF LECO 140200Z 1403/1503 20009KT 9999 SCT025 TX13/1414Z TN08/1407Z 
     PROB30 
     TEMPO 1403/1406 SHRA SCT025TCU 
     PROB40 
     TEMPO 1412/1418 4000 RA 
     PROB40 
     TEMPO 1418/1503 20015G25KT
       
TAF LEAB 140200Z 1403/1412 30020KT 9999 FEW025 BKN040 
     TEMPO 1403/1412 33020G35KT
       
TAF LERI 140200Z 1403/1412 31018KT CAVOK 
     TEMPO 1403/1412 31022G34KT
       
TAF LEAL 132300Z 1400/1424 32025KT 9999 SCT040 TX18/1412Z TN10/1406Z 
     TEMPO 1400/1411 32030G43KT 
     BECMG 1411/1413 32015KT
       
TAF LEAM 140200Z 1403/1503 32014KT CAVOK TX17/1414Z TN13/1405Z 
     PROB40 
     TEMPO 1403/1412 33020G30KT
       
TAF LEAS 140200Z 1403/1503 26012KT 9999 SCT040 TX13/1414Z TN08/1408Z 
     PROB40 
     TEMPO 1403/1406 4000 SHRA SCT020TCU 
     BECMG 1403/1406 20009KT 
     PROB30 
     TEMPO 1403/1409 4000 RADZ BKN014 
     PROB40 
     TEMPO 1418/1503 4000 RA
       
TAF LEMD 132300Z 1400/1506 32006KT 9999 BKN018 TX10/1415Z TN03/1408Z
       
TAF LEBL 132300Z 1400/1424 35010KT 9999 SCT030 TX15/1412Z TN09/1406Z 
     PROB30 
     TEMPO 1400/1404 4000 RA 
     BECMG 1408/1410 05006KT 
     BECMG 1412/1415 18007KT
       
TAF LEBB 132300Z 1400/1424 29009KT 9999 SCT025 BKN050 TX13/1414Z TN08/1408Z 
     TEMPO 1400/1412 30015G25KT RA 
     PROB30 
     TEMPO 1400/1412 4000 SHRA SCT030TCU 
     TEMPO 1400/1408 BKN010
       
TAF LEBG 140200Z 1403/1412 27009KT 9999 FEW025 BKN040
       
TAF LEBA 140200Z 1403/1412 25006KT CAVOK
       
TAF AMD LEVS 131929Z 1319/1403 31013KT 9999 BKN040 
     TEMPO 1319/1321 30015G27KT
       
TAF GCFV 140200Z 1403/1503 34008KT 9999 SCT025 TX22/1413Z TN18/1406Z 
     BECMG 1409/1411 04014KT 
     BECMG 1417/1419 34009KT
       
TAF LEGT 140200Z 1403/1412 26009KT 9999 FEW025
       
TAF LEGE 132300Z 1400/1424 01013KT 9999 BKN030 TX14/1413Z TN06/1406Z 
     PROB40 
     TEMPO 1400/1408 3000 RA BR 
     BECMG 1409/1412 VRB04KT
       
TAF GCLP 140200Z 1403/1503 36012KT 9999 SCT025 TX22/1413Z TN18/1406Z
       
TAF LEGR 140200Z 1403/1503 27006KT 9999 FEW040 TX13/1415Z TN02/1407Z 
     PROB30 
     TEMPO 1403/1407 BKN014
       
TAF GCHI 140200Z 1403/1503 02009KT 9999 SCT025 TX23/1413Z TN20/1406Z
       
TAF LEIB 140200Z 1403/1503 35022KT 9999 SCT015 BKN025 TX16/1412Z TN10/1406Z 
     TEMPO 1403/1411 35026G40KT 
     PROB40 
     TEMPO 1403/1412 4000 RA BKN014 FEW020TCU 
     BECMG 1412/1415 35007KT
       
TAF LEJR 132300Z 1400/1424 31008KT CAVOK TX16/1415Z TN05/1406Z
       
TAF GCGM 140200Z 1403/1503 28004KT 9999 FEW030 TX22/1413Z TN17/1406Z
       
TAF GCLA 140200Z 1403/1503 33007KT 9999 SCT025 TX23/1413Z TN18/1406Z 
     BECMG 1409/1411 03010KT
       
TAF GCRR 140200Z 1403/1503 01011KT 9999 SCT025 TX22/1413Z TN18/1406Z 
     PROB30 1412/1503 01015G25KT
       
TAF LELN 140200Z 1403/1412 34009KT 9999 FEW025 BKN040
       
TAF LEMG 132300Z 1400/1424 30012KT 9999 FEW035 TX16/1414Z TN08/1406Z 
     TEMPO 1410/1417 30017G27KT
       
TAF GEML 140200Z 1403/1503 29022KT 9999 FEW030 TX16/1412Z TN13/1406Z 
     PROB40 
     TEMPO 1403/1416 29028G43KT
       
TAF LEMH 140200Z 1403/1503 33007KT 9999 BKN020 TX14/1412Z TN08/1406Z 
     BECMG 1406/1409 02024KT 
     TEMPO 1408/1415 02028G42KT 
     PROB40 
     TEMPO 1403/1412 3000 RA BR BKN012 FEW015TCU 
     BECMG 1415/1418 36009KT
       
TAF LEMO 140200Z 1403/1412 24007KT CAVOK
       
TAF LEPP 140200Z 1403/1503 34009KT 9999 SCT015 BKN025 TX09/1414Z TN04/1405Z 
     PROB40 
     TEMPO 1403/1415 3000 RA BKN010
       
TAF LERS 140200Z 1403/1503 29007KT 9999 SCT040 TX16/1413Z TN07/1406Z 
     TEMPO 1406/1503 29012G24KT
       
TAF LERT 140200Z 1403/1412 33010KT CAVOK
       
TAF LESA 132300Z 1400/1424 30009KT 9999 BKN020 TX08/1414Z TNM01/1407Z 
     PROB40 
     TEMPO 1403/1409 3000 BR BKN006 
     PROB30 
     TEMPO 1404/1409 0500 FG BKN003
       
TAF LESO 132300Z 1400/1424 29009KT 9999 SCT025 BKN050 TX13/1414Z TN08/1408Z 
     TEMPO 1400/1420 30015G30KT RA 
     PROB30 
     TEMPO 1400/1412 4000 SHRA SCT030TCU 
     TEMPO 1400/1408 BKN010
       
TAF LEXJ 140200Z 1403/1503 26013KT 9999 SCT015 BKN040 TX13/1413Z TN10/1406Z 
     TEMPO 1403/1412 27018G30KT 3000 RA SHRA SCT020TCU 
     PROB40 
     TEMPO 1403/1409 BKN010 
     BECMG 1415/1418 18007KT
       
TAF LEST 132300Z 1400/1424 22007KT 9999 SCT010 BKN040 TX10/1414Z TN04/1407Z 
     TEMPO 1400/1408 3000 -RA BR BKN010 
     PROB40 
     TEMPO 1400/1408 1500 BCFG BKN005 
     PROB30 
     TEMPO 1400/1408 0350 FG BKN001 
     TEMPO 1415/1424 3000 RA BKN010 
     PROB40 
     TEMPO 1418/1424 0350 RADZ BCFG BKN003
       
TAF LESU 140200Z 1403/1503 VRB05KT 9999 SCT060 TX10/1413Z TNM02/1406Z 
     PROB30 
     TEMPO 1406/1410 0800 BCFG VV002
       
TAF LEZL 140200Z 1403/1503 30007KT CAVOK TX17/1415Z TN06/1406Z
       
TAF LEBZ 132300Z 1400/1424 30007KT 9999 FEW040 TX14/1415Z TN05/1407Z
       
TAF GCXO 140200Z 1403/1503 30010KT 9999 SCT010 TX19/1413Z TN12/1406Z 
     TEMPO 1403/1409 BKN012 
     PROB30 
     TEMPO 1403/1409 4000 DZ BCFG BKN005 
     BECMG 1418/1421 15007KT
       
TAF GCTS 140200Z 1403/1503 36008KT 9999 FEW030 TX23/1413Z TN17/1406Z 
     BECMG 1409/1411 10015KT 
     BECMG 1418/1420 02006KT
       
TAF LETO 132300Z 1400/1424 31007KT 9999 BKN020 TX10/1415Z TN02/1408Z
       
TAF COR LEVC 132313Z 1400/1424 30008KT 9999 SCT050 TX17/1412Z TN08/1406Z 
     TEMPO 1400/1409 30015G30KT
       
TAF LEVD 131700Z 1318/1418 30010KT CAVOK TX08/1414Z TN00/1408Z
       
TAF LEVX 132300Z 1400/1424 VRB02KT 9999 SCT010 BKN040 TX11/1414Z TN04/1407Z 
     TEMPO 1400/1408 3000 -RA BR BKN010 
     PROB40 
     TEMPO 1400/1408 1500 BCFG BKN005 
     PROB30 
     TEMPO 1400/1408 0350 FG BKN001 
     BECMG 1408/1412 17010KT 
     TEMPO 1415/1424 3000 RA BKN010 
     PROB40 
     TEMPO 1418/1424 0350 RADZ BCFG BKN003
       
TAF LEVT 132300Z 1400/1424 30009KT 9000 SCT011 BKN025 TX09/1412Z TN04/1404Z 
     PROB40 
     TEMPO 1400/1408 3000 -RA BR BKN010
       
TAF LEZG 132300Z 1400/1424 30015KT 9999 SCT040 TX14/1414Z TN05/1406Z 
     TEMPO 1400/1418 30020G32KT